createdAt,value
2023-01-08T00:01:21.518Z,100582.69
2023-01-08T00:03:52.982Z,100584.50
2023-01-08T00:06:22.879Z,100585.34
2023-01-08T00:08:49.506Z,100588.53
2023-01-08T00:11:19.077Z,100587.69
2023-01-08T00:13:48.313Z,100586.53
2023-01-08T00:16:17.837Z,100584.53
2023-01-08T00:18:45.232Z,100584.53
2023-01-08T00:21:11.830Z,100574.44
2023-01-08T00:23:38.492Z,100582.66
2023-01-08T00:26:06.620Z,100580.50
2023-01-08T00:28:36.070Z,100574.84
2023-01-08T00:31:06.345Z,100574.09
2023-01-08T00:33:38.451Z,100565.50
2023-01-08T00:36:08.894Z,100567.41
2023-01-08T00:38:35.567Z,100560.63
2023-01-08T00:41:02.101Z,100560.97
2023-01-08T00:43:28.669Z,100562.84
2023-01-08T00:45:57.879Z,100560.44
2023-01-08T00:48:26.951Z,100561.28
2023-01-08T00:50:56.064Z,100556.97
2023-01-08T00:53:22.737Z,100559.59
2023-01-08T00:55:49.512Z,100560.31
2023-01-08T00:58:16.142Z,100557.56
2023-01-08T01:00:45.264Z,100565.31
2023-01-08T01:03:11.908Z,100565.38
2023-01-08T01:05:38.573Z,100563.44
2023-01-08T01:08:10.237Z,100575.88
2023-01-08T01:10:38.517Z,100567.78
2023-01-08T01:13:05.204Z,100568.78
2023-01-08T01:15:31.752Z,100555.06
2023-01-08T01:17:58.374Z,100563.31
2023-01-08T01:20:25.031Z,100564.34
2023-01-08T01:22:51.631Z,100567.91
2023-01-08T01:25:18.200Z,100567.78
2023-01-08T01:27:47.321Z,100566.19
2023-01-08T01:30:14.197Z,100563.72
2023-01-08T01:32:40.804Z,100559.31
2023-01-08T01:35:10.058Z,100559.56
2023-01-08T01:37:39.654Z,100555.34
2023-01-08T01:40:08.819Z,100544.28
2023-01-08T01:42:41.399Z,100544.53
2023-01-08T01:45:25.356Z,100536.66
2023-01-08T01:48:06.024Z,100530.72
2023-01-08T01:50:33.789Z,100524.72
2023-01-08T01:53:12.673Z,100519.28
2023-01-08T01:55:42.676Z,100520.94
2023-01-08T01:58:09.287Z,100507.88
2023-01-08T02:00:36.020Z,100508.00
2023-01-08T02:03:02.661Z,100501.28
2023-01-08T02:05:38.777Z,100496.75
2023-01-08T02:08:07.800Z,100495.38
2023-01-08T02:10:41.176Z,100487.66
2023-01-08T02:13:14.814Z,100493.03
2023-01-08T02:16:01.712Z,100489.66
2023-01-08T02:18:32.768Z,100486.78
2023-01-08T02:21:01.957Z,100490.47
2023-01-08T02:23:38.163Z,100495.47
2023-01-08T02:26:10.138Z,100496.03
2023-01-08T02:28:45.071Z,100494.41
2023-01-08T02:31:13.178Z,100491.00
2023-01-08T02:33:40.021Z,100484.09
2023-01-08T02:36:25.194Z,100482.56
2023-01-08T02:38:59.680Z,100485.16
2023-01-08T02:41:28.270Z,100489.31
2023-01-08T02:43:54.881Z,100484.16
2023-01-08T02:46:26.613Z,100483.28
2023-01-08T02:48:57.221Z,100477.34
2023-01-08T02:51:26.987Z,100481.69
2023-01-08T02:53:54.737Z,100473.91
2023-01-08T02:56:22.440Z,100475.59
2023-01-08T02:58:49.677Z,100472.13
2023-01-08T03:01:16.932Z,100465.34
2023-01-08T03:03:44.555Z,100467.97
2023-01-08T03:06:14.639Z,100469.09
2023-01-08T03:08:42.383Z,100463.88
2023-01-08T03:11:11.819Z,100464.00
2023-01-08T03:13:42.694Z,100453.69
2023-01-08T03:16:12.746Z,100447.69
2023-01-08T03:18:41.448Z,100440.63
2023-01-08T03:21:08.071Z,100449.28
2023-01-08T03:23:35.176Z,100446.63
2023-01-08T03:26:04.343Z,100444.97
2023-01-08T03:28:35.919Z,100453.69
2023-01-08T03:31:02.630Z,100457.03
2023-01-08T03:33:29.736Z,100460.63
2023-01-08T03:35:56.284Z,100458.13
2023-01-08T03:38:27.260Z,100437.53
2023-01-08T03:40:58.103Z,100443.47
2023-01-08T03:43:28.270Z,100441.63
2023-01-08T03:46:03.062Z,100438.16
2023-01-08T03:48:30.233Z,100429.56
2023-01-08T03:50:59.663Z,100431.16
2023-01-08T03:53:26.326Z,100419.88
2023-01-08T03:55:53.040Z,100418.84
2023-01-08T03:58:19.585Z,100425.69
2023-01-08T04:00:48.742Z,100430.84
2023-01-08T04:03:17.663Z,100426.50
2023-01-08T04:05:44.362Z,100426.50
2023-01-08T04:08:13.437Z,100422.38
2023-01-08T04:10:40.337Z,100412.91
2023-01-08T04:13:07.363Z,100414.69
2023-01-08T04:15:36.675Z,100426.63
2023-01-08T04:18:05.770Z,100423.84
2023-01-08T04:20:34.865Z,100425.44
2023-01-08T04:23:01.460Z,100431.22
2023-01-08T04:25:28.161Z,100432.94
2023-01-08T04:27:57.166Z,100426.13
2023-01-08T04:30:23.778Z,100423.47
2023-01-08T04:32:52.660Z,100423.41
2023-01-08T04:35:21.747Z,100422.66
2023-01-08T04:37:50.717Z,100421.22
2023-01-08T04:40:17.324Z,100422.13
2023-01-08T04:42:43.882Z,100422.91
2023-01-08T04:45:15.802Z,100423.78
2023-01-08T04:47:42.561Z,100430.72
2023-01-08T04:50:09.723Z,100425.25
2023-01-08T04:52:41.425Z,100435.38
2023-01-08T04:55:08.238Z,100438.56
2023-01-08T04:57:37.200Z,100429.56
2023-01-08T05:00:06.726Z,100430.88
2023-01-08T05:02:33.586Z,100433.69
2023-01-08T05:05:00.347Z,100436.44
2023-01-08T05:07:27.069Z,100422.56
2023-01-08T05:09:56.132Z,100425.22
2023-01-08T05:12:22.886Z,100423.13
2023-01-08T05:14:49.597Z,100413.88
2023-01-08T05:17:16.291Z,100419.47
2023-01-08T05:19:42.952Z,100410.56
2023-01-08T05:22:09.529Z,100413.06
2023-01-08T05:24:38.546Z,100411.72
2023-01-08T05:27:13.048Z,100407.69
2023-01-08T05:29:39.771Z,100410.44
2023-01-08T05:32:07.196Z,100407.16
2023-01-08T05:34:33.854Z,100405.50
2023-01-08T05:37:00.534Z,100408.78
2023-01-08T05:39:27.122Z,100402.47
2023-01-08T05:41:53.878Z,100403.44
2023-01-08T05:44:20.503Z,100409.47
2023-01-08T05:46:47.181Z,100403.47
2023-01-08T05:49:16.147Z,100402.03
2023-01-08T05:51:43.475Z,100399.41
2023-01-08T05:54:10.069Z,100400.16
2023-01-08T05:56:39.029Z,100396.59
2023-01-08T05:59:07.968Z,100399.09
2023-01-08T06:01:34.630Z,100388.47
2023-01-08T06:04:01.332Z,100388.47
2023-01-08T06:06:28.077Z,100380.06
2023-01-08T06:08:54.648Z,100385.25
2023-01-08T06:11:23.808Z,100382.59
2023-01-08T06:13:50.670Z,100381.16
2023-01-08T06:16:17.755Z,100380.91
2023-01-08T06:18:44.372Z,100382.66
2023-01-08T06:21:13.805Z,100381.41
2023-01-08T06:23:43.434Z,100380.50
2023-01-08T06:26:10.137Z,100379.59
2023-01-08T06:28:39.102Z,100382.16
2023-01-08T06:31:11.436Z,100375.59
2023-01-08T06:33:38.067Z,100366.91
2023-01-08T06:36:04.978Z,100372.31
2023-01-08T06:38:32.616Z,100362.09
2023-01-08T06:41:02.805Z,100372.66
2023-01-08T06:43:32.167Z,100365.81
2023-01-08T06:46:00.961Z,100368.78
2023-01-08T06:48:27.663Z,100364.84
2023-01-08T06:50:54.727Z,100365.22
2023-01-08T06:53:23.834Z,100372.97
2023-01-08T06:55:56.192Z,100379.75
2023-01-08T06:58:23.283Z,100377.19
2023-01-08T07:00:49.997Z,100377.13
2023-01-08T07:03:18.948Z,100365.91
2023-01-08T07:05:45.584Z,100377.75
2023-01-08T07:08:15.541Z,100372.97
2023-01-08T07:10:42.593Z,100374.72
2023-01-08T07:13:09.407Z,100375.28
2023-01-08T07:15:36.522Z,100375.84
2023-01-08T07:18:10.161Z,100370.41
2023-01-08T07:20:37.007Z,100372.16
2023-01-08T07:23:04.529Z,100371.38
2023-01-08T07:25:31.457Z,100370.41
2023-01-08T07:27:58.251Z,100375.59
2023-01-08T07:30:30.233Z,100366.72
2023-01-08T07:33:00.909Z,100372.69
2023-01-08T07:35:27.788Z,100375.03
2023-01-08T07:37:59.341Z,100369.00
2023-01-08T07:40:25.981Z,100364.84
2023-01-08T07:43:05.154Z,100364.09
2023-01-08T07:45:31.931Z,100367.69
2023-01-08T07:47:59.102Z,100366.13
2023-01-08T07:50:28.792Z,100365.50
2023-01-08T07:52:59.554Z,100367.53
2023-01-08T07:55:29.653Z,100364.94
2023-01-08T07:58:01.215Z,100362.28
2023-01-08T08:00:30.987Z,100366.66
2023-01-08T08:03:02.435Z,100360.66
2023-01-08T08:05:31.567Z,100369.72
2023-01-08T08:08:03.173Z,100362.63
2023-01-08T08:10:29.877Z,100360.97
2023-01-08T08:12:56.584Z,100357.09
2023-01-08T08:15:23.269Z,100353.38
2023-01-08T08:17:49.999Z,100353.31
2023-01-08T08:20:16.735Z,100341.16
2023-01-08T08:22:45.798Z,100345.84
2023-01-08T08:25:15.154Z,100334.09
2023-01-08T08:27:44.683Z,100330.94
2023-01-08T08:30:13.662Z,100328.44
2023-01-08T08:32:40.374Z,100326.78
2023-01-08T08:35:07.134Z,100324.84
2023-01-08T08:37:33.867Z,100327.44
2023-01-08T08:40:00.550Z,100316.00
2023-01-08T08:42:27.212Z,100316.78
2023-01-08T08:44:56.815Z,100316.88
2023-01-08T08:47:23.472Z,100313.84
2023-01-08T08:49:50.123Z,100319.03
2023-01-08T08:52:16.857Z,100315.75
2023-01-08T08:54:45.781Z,100313.16
2023-01-08T08:57:16.030Z,100313.22
2023-01-08T08:59:48.209Z,100318.00
2023-01-08T09:02:17.568Z,100315.56
2023-01-08T09:04:46.547Z,100314.41
2023-01-08T09:07:13.243Z,100316.63
2023-01-08T09:09:40.020Z,100309.38
2023-01-08T09:12:09.493Z,100308.56
2023-01-08T09:14:38.381Z,100306.03
2023-01-08T09:17:05.033Z,100305.28
2023-01-08T09:19:31.654Z,100309.00
2023-01-08T09:22:03.183Z,100312.38
2023-01-08T09:24:32.375Z,100306.59
2023-01-08T09:26:59.321Z,100293.84
2023-01-08T09:29:26.029Z,100296.50
2023-01-08T09:31:55.992Z,100295.06
2023-01-08T09:34:25.163Z,100295.41
2023-01-08T09:36:52.444Z,100283.50
2023-01-08T09:39:19.048Z,100290.16
2023-01-08T09:41:46.426Z,100284.09
2023-01-08T09:44:18.912Z,100280.31
2023-01-08T09:46:48.660Z,100274.88
2023-01-08T09:49:17.449Z,100276.81
2023-01-08T09:51:44.541Z,100255.66
2023-01-08T09:54:12.124Z,100242.56
2023-01-08T09:56:40.853Z,100245.63
2023-01-08T09:59:07.537Z,100239.59
2023-01-08T10:01:41.195Z,100247.47
2023-01-08T10:04:14.888Z,100238.78
2023-01-08T10:06:43.985Z,100232.53
2023-01-08T10:09:13.176Z,100217.13
2023-01-08T10:11:46.169Z,100211.31
2023-01-08T10:14:32.270Z,100212.19
2023-01-08T10:17:02.175Z,100190.94
2023-01-08T10:19:34.878Z,100197.25
2023-01-08T10:22:38.873Z,100196.22
2023-01-08T10:25:07.212Z,100193.88
2023-01-08T10:27:37.625Z,100188.34
2023-01-08T10:30:04.963Z,100187.69
2023-01-08T10:32:35.594Z,100179.09
2023-01-08T10:35:05.827Z,100178.13
2023-01-08T10:37:36.537Z,100175.94
2023-01-08T10:40:22.174Z,100170.63
2023-01-08T10:42:51.596Z,100168.91
2023-01-08T10:45:23.363Z,100163.28
2023-01-08T10:47:51.563Z,100155.66
2023-01-08T10:50:47.907Z,100155.88
2023-01-08T10:53:43.919Z,100149.91
2023-01-08T10:56:23.032Z,100147.03
2023-01-08T10:58:50.236Z,100149.06
2023-01-08T11:01:23.159Z,100146.59
2023-01-08T11:03:50.619Z,100147.75
2023-01-08T11:06:29.272Z,100147.88
2023-01-08T11:09:03.232Z,100145.19
2023-01-08T11:11:36.646Z,100131.88
2023-01-08T11:14:04.240Z,100125.56
2023-01-08T11:16:33.757Z,100121.97
2023-01-08T11:19:00.443Z,100114.59
2023-01-08T11:21:30.873Z,100115.94
2023-01-08T11:24:05.239Z,100105.66
2023-01-08T11:26:34.128Z,100100.31
2023-01-08T11:29:08.293Z,100096.84
2023-01-08T11:31:37.367Z,100096.94
2023-01-08T11:34:25.535Z,100081.38
2023-01-08T11:37:15.462Z,100080.69
2023-01-08T11:39:42.266Z,100073.91
2023-01-08T11:42:14.262Z,100071.72
2023-01-08T11:44:43.906Z,100064.28
2023-01-08T11:47:13.636Z,100064.53
2023-01-08T11:49:59.197Z,100062.97
2023-01-08T11:52:35.232Z,100060.38
2023-01-08T11:55:17.294Z,100058.81
2023-01-08T11:58:02.759Z,100048.44
2023-01-08T12:00:38.618Z,100046.03
2023-01-08T12:03:11.693Z,100036.66
2023-01-08T12:05:47.603Z,100038.50
2023-01-08T12:08:17.282Z,100041.16
2023-01-08T12:11:10.055Z,100042.03
2023-01-08T12:13:39.867Z,100035.94
2023-01-08T12:16:32.827Z,100042.66
2023-01-08T12:18:59.424Z,100040.19
2023-01-08T12:21:46.250Z,100034.31
2023-01-08T12:24:16.373Z,100040.25
2023-01-08T12:26:59.620Z,100033.28
2023-01-08T12:29:26.177Z,100032.91
2023-01-08T12:32:01.864Z,100035.78
2023-01-08T12:34:47.952Z,100033.38
2023-01-08T12:37:19.371Z,100030.03
2023-01-08T12:40:07.764Z,100031.78
2023-01-08T12:42:38.617Z,100027.56
2023-01-08T12:45:05.930Z,100016.25
2023-01-08T12:47:35.372Z,100020.44
2023-01-08T12:50:31.418Z,100019.50
2023-01-08T12:53:12.789Z,100023.03
2023-01-08T12:55:42.371Z,100016.03
2023-01-08T12:58:35.418Z,100022.09
2023-01-08T13:01:23.565Z,100015.00
2023-01-08T13:03:50.301Z,100016.53
2023-01-08T13:06:17.616Z,100010.13
2023-01-08T13:08:51.629Z,100010.75
2023-01-08T13:11:47.404Z,100005.81
2023-01-08T13:14:14.100Z,100017.78
2023-01-08T13:16:47.302Z,100009.81
2023-01-08T13:19:24.042Z,100008.28
2023-01-08T13:21:51.622Z,100008.53
2023-01-08T13:24:28.798Z,100009.97
2023-01-08T13:26:56.011Z,100096.06
2023-01-08T13:29:30.255Z,99999.19
2023-01-08T13:31:56.872Z,99998.59
2023-01-08T13:34:34.961Z,100006.50
2023-01-08T13:37:01.766Z,100005.69
2023-01-08T13:39:34.621Z,100014.06
2023-01-08T13:42:01.322Z,100004.28
2023-01-08T13:44:36.275Z,100002.56
2023-01-08T13:47:07.783Z,100005.25
2023-01-08T13:49:34.680Z,99996.13
2023-01-08T13:52:01.304Z,100000.41
2023-01-08T13:54:35.572Z,99988.34
2023-01-08T13:57:04.291Z,99994.41
2023-01-08T13:59:41.727Z,99989.69
2023-01-08T14:02:27.093Z,100006.00
2023-01-08T14:04:54.374Z,100000.38
2023-01-08T14:07:21.353Z,100003.66
2023-01-08T14:09:50.554Z,100015.38
2023-01-08T14:12:20.330Z,99999.13
2023-01-08T14:14:53.879Z,100004.50
2023-01-08T14:17:23.681Z,100002.88
2023-01-08T14:19:55.796Z,100007.59
2023-01-08T14:22:26.654Z,100006.31
2023-01-08T14:24:58.662Z,100005.47
2023-01-08T14:27:26.536Z,99997.66
2023-01-08T14:29:55.659Z,100009.56
2023-01-08T14:32:25.641Z,100010.53
2023-01-08T14:34:52.961Z,100008.34
2023-01-08T14:37:19.684Z,100002.28
2023-01-08T14:39:48.668Z,99997.97
2023-01-08T14:42:37.566Z,99998.03
2023-01-08T14:45:23.274Z,100004.66
2023-01-08T14:47:56.189Z,99993.88
2023-01-08T14:50:29.319Z,100003.28
2023-01-08T14:53:14.587Z,99990.34
2023-01-08T14:55:42.099Z,99989.47
2023-01-08T14:58:14.053Z,99990.19
2023-01-08T15:00:40.688Z,100001.31
2023-01-08T15:03:07.341Z,99995.41
2023-01-08T15:05:33.983Z,99990.34
2023-01-08T15:08:00.635Z,99984.47
2023-01-08T15:10:42.943Z,99977.59
2023-01-08T15:13:22.532Z,99985.97
2023-01-08T15:15:55.806Z,99990.88
2023-01-08T15:18:24.761Z,99981.28
2023-01-08T15:20:56.484Z,99981.50
2023-01-08T15:23:30.095Z,99974.66
2023-01-08T15:25:56.864Z,99976.38
2023-01-08T15:28:26.872Z,99980.69
2023-01-08T15:30:58.260Z,99977.94
2023-01-08T15:33:27.673Z,99974.44
2023-01-08T15:35:56.681Z,99975.25
2023-01-08T15:38:24.192Z,99977.16
2023-01-08T15:40:51.010Z,99966.16
2023-01-08T15:43:20.131Z,99972.34
2023-01-08T15:45:53.304Z,99966.53
2023-01-08T15:48:20.274Z,99966.75
2023-01-08T15:50:47.111Z,99952.19
2023-01-08T15:53:16.962Z,99953.97
2023-01-08T15:55:47.296Z,99947.97
2023-01-08T15:58:16.406Z,99947.25
2023-01-08T16:00:43.542Z,99953.31
2023-01-08T16:03:11.571Z,99949.00
2023-01-08T16:05:45.620Z,99943.56
2023-01-08T16:08:12.339Z,99943.28
2023-01-08T16:10:38.983Z,99945.72
2023-01-08T16:13:05.631Z,99950.06
2023-01-08T16:15:34.930Z,99941.50
2023-01-08T16:18:01.786Z,99946.06
2023-01-08T16:20:28.432Z,99944.50
2023-01-08T16:23:00.520Z,99936.66
2023-01-08T16:25:31.495Z,99933.28
2023-01-08T16:27:58.157Z,99931.69
2023-01-08T16:30:24.922Z,99928.19
2023-01-08T16:32:53.609Z,99926.03
2023-01-08T16:35:22.992Z,99931.13
2023-01-08T16:37:51.981Z,99926.94
2023-01-08T16:40:19.771Z,99934.03
2023-01-08T16:42:46.564Z,99927.34
2023-01-08T16:45:13.188Z,99924.03
2023-01-08T16:47:39.969Z,99922.31
2023-01-08T16:50:06.713Z,99923.03
2023-01-08T16:52:33.350Z,99925.75
2023-01-08T16:55:03.140Z,99923.97
2023-01-08T16:57:29.739Z,99920.03
2023-01-08T16:59:56.911Z,99921.84
2023-01-08T17:02:28.129Z,99915.03
2023-01-08T17:04:57.131Z,99914.34
2023-01-08T17:07:29.567Z,99912.66
2023-01-08T17:09:56.215Z,99904.88
2023-01-08T17:12:22.951Z,99907.25
2023-01-08T17:14:54.518Z,99909.84
2023-01-08T17:17:26.460Z,99908.94
2023-01-08T17:19:54.533Z,99906.28
2023-01-08T17:22:23.580Z,99911.13
2023-01-08T17:24:50.252Z,99914.16
2023-01-08T17:27:30.035Z,99901.25
2023-01-08T17:30:02.625Z,99908.19
2023-01-08T17:32:29.987Z,99903.28
2023-01-08T17:34:56.690Z,99899.16
2023-01-08T17:37:23.266Z,99904.50
2023-01-08T17:39:51.930Z,99890.66
2023-01-08T17:42:47.450Z,99883.63
2023-01-08T17:45:14.082Z,99897.06
2023-01-08T17:47:40.665Z,99893.78
2023-01-08T17:50:07.597Z,99892.16
2023-01-08T17:52:36.870Z,99890.16
2023-01-08T17:55:18.650Z,99888.41
2023-01-08T17:57:45.431Z,99891.22
2023-01-08T18:00:12.431Z,99893.13
2023-01-08T18:02:43.222Z,99889.78
2023-01-08T18:05:09.846Z,99887.88
2023-01-08T18:07:36.493Z,99885.38
2023-01-08T18:10:03.997Z,99888.78
2023-01-08T18:12:31.758Z,99892.19
2023-01-08T18:14:58.594Z,99882.84
2023-01-08T18:17:27.706Z,99886.94
2023-01-08T18:19:56.810Z,99879.00
2023-01-08T18:22:23.445Z,99891.09
2023-01-08T18:24:57.353Z,99885.22
2023-01-08T18:27:26.791Z,99887.97
2023-01-08T18:29:55.756Z,99880.34
2023-01-08T18:32:26.267Z,99884.59
2023-01-08T18:34:53.153Z,99887.28
2023-01-08T18:37:25.055Z,99891.63
2023-01-08T18:39:56.616Z,99893.88
2023-01-08T18:42:26.379Z,99884.31
2023-01-08T18:44:55.333Z,99883.44
2023-01-08T18:47:30.064Z,99885.44
2023-01-08T18:50:03.182Z,99885.78
2023-01-08T18:52:30.070Z,99879.09
2023-01-08T18:54:57.779Z,99880.06
2023-01-08T18:57:24.400Z,99884.19
2023-01-08T18:59:51.159Z,99884.38
2023-01-08T19:02:21.911Z,99879.22
2023-01-08T19:04:51.096Z,99880.22
2023-01-08T19:07:19.783Z,99874.25
2023-01-08T19:09:48.948Z,99876.00
2023-01-08T19:12:15.970Z,99876.78
2023-01-08T19:14:46.984Z,99871.66
2023-01-08T19:17:31.534Z,99862.25
2023-01-08T19:19:58.162Z,99881.28
2023-01-08T19:22:26.867Z,99876.13
2023-01-08T19:24:58.325Z,99867.56
2023-01-08T19:27:35.932Z,99875.53
2023-01-08T19:30:03.539Z,99867.88
2023-01-08T19:32:30.511Z,99865.38
2023-01-08T19:34:57.222Z,99861.13
2023-01-08T19:37:26.608Z,99862.03
2023-01-08T19:40:00.406Z,99855.13
2023-01-08T19:42:48.213Z,99857.72
2023-01-08T19:45:19.218Z,99849.81
2023-01-08T19:47:48.369Z,99854.16
2023-01-08T19:50:15.061Z,99846.38
2023-01-08T19:52:46.818Z,99845.50
2023-01-08T19:55:22.141Z,99848.09
2023-01-08T19:57:49.365Z,99848.88
2023-01-08T20:00:22.308Z,99842.03
2023-01-08T20:02:49.888Z,99839.44
2023-01-08T20:05:19.029Z,99841.09
2023-01-08T20:07:48.232Z,99836.84
2023-01-08T20:10:17.462Z,99838.34
2023-01-08T20:12:44.155Z,99830.53
2023-01-08T20:15:10.798Z,99834.09
2023-01-08T20:17:38.385Z,99826.38
2023-01-08T20:20:07.423Z,99830.75
2023-01-08T20:22:38.962Z,99826.41
2023-01-08T20:25:06.220Z,99824.75
2023-01-08T20:27:33.653Z,99824.81
2023-01-08T20:30:01.301Z,99823.09
2023-01-08T20:32:30.338Z,99818.59
2023-01-08T20:35:04.610Z,99821.28
2023-01-08T20:37:33.441Z,99822.94
2023-01-08T20:40:02.978Z,99811.69
2023-01-08T20:42:34.487Z,99816.00
2023-01-08T20:45:01.492Z,99813.00
2023-01-08T20:47:28.053Z,99810.16
2023-01-08T20:49:54.812Z,99808.91
2023-01-08T20:52:21.546Z,99807.88
2023-01-08T20:54:48.399Z,99803.41
2023-01-08T20:57:15.504Z,99805.88
2023-01-08T20:59:42.343Z,99802.53
2023-01-08T21:02:11.699Z,99799.56
2023-01-08T21:04:43.817Z,99797.94
2023-01-08T21:07:10.435Z,99802.22
2023-01-08T21:09:38.490Z,99799.28
2023-01-08T21:12:07.026Z,99753.56
2023-01-08T21:14:36.029Z,99791.28
2023-01-08T21:17:02.655Z,99793.88
2023-01-08T21:19:32.455Z,99789.34
2023-01-08T21:21:59.029Z,99796.13
2023-01-08T21:24:25.618Z,99791.09
2023-01-08T21:26:52.206Z,99787.75
2023-01-08T21:29:20.907Z,99787.97
2023-01-08T21:31:50.033Z,99785.56
2023-01-08T21:34:16.819Z,99782.25
2023-01-08T21:36:48.494Z,99772.19
2023-01-08T21:39:17.778Z,99777.47
2023-01-08T21:42:02.920Z,99771.44
2023-01-08T21:44:48.075Z,99777.66
2023-01-08T21:47:18.046Z,99769.47
2023-01-08T21:49:45.591Z,99766.69
2023-01-08T21:52:38.206Z,99764.88
2023-01-08T21:55:05.162Z,99763.06
2023-01-08T21:57:37.463Z,99758.72
2023-01-08T22:00:04.518Z,99755.78
2023-01-08T22:02:31.111Z,99758.41
2023-01-08T22:05:00.249Z,99750.69
2023-01-08T22:07:29.750Z,99747.22
2023-01-08T22:09:56.417Z,99744.41
2023-01-08T22:12:23.411Z,99745.91
2023-01-08T22:14:52.034Z,99748.50
2023-01-08T22:17:18.666Z,99750.16
2023-01-08T22:19:47.739Z,99750.03
2023-01-08T22:22:14.433Z,99744.72
2023-01-08T22:24:41.048Z,99738.56
2023-01-08T22:27:08.190Z,99735.03
2023-01-08T22:29:35.179Z,99745.44
2023-01-08T22:32:04.403Z,99741.84
2023-01-08T22:34:31.384Z,99737.53
2023-01-08T22:36:58.003Z,99732.28
2023-01-08T22:39:24.622Z,99732.84
2023-01-08T22:41:51.686Z,99730.31
2023-01-08T22:44:18.367Z,99718.28
2023-01-08T22:46:44.956Z,99726.22
2023-01-08T22:49:13.219Z,99711.56
2023-01-08T22:51:42.499Z,99717.38
2023-01-08T22:54:11.053Z,99711.31
2023-01-08T22:56:37.721Z,99711.94
2023-01-08T22:59:04.330Z,99702.25
2023-01-08T23:01:31.244Z,99699.53
2023-01-08T23:03:58.622Z,99699.44
2023-01-08T23:06:26.015Z,99701.97
2023-01-08T23:08:53.248Z,99692.47
2023-01-08T23:11:20.255Z,99683.69
2023-01-08T23:13:51.135Z,99689.66
2023-01-08T23:16:22.981Z,99683.56
2023-01-08T23:18:51.114Z,99687.91
2023-01-08T23:21:19.221Z,99686.06
2023-01-08T23:23:48.976Z,99681.56
2023-01-08T23:26:16.834Z,99681.53
2023-01-08T23:28:43.541Z,99682.22
2023-01-08T23:31:11.135Z,99681.34
2023-01-08T23:33:37.904Z,99671.94
2023-01-08T23:36:07.925Z,99674.53
2023-01-08T23:38:37.329Z,99669.28
2023-01-08T23:41:05.660Z,99667.56
2023-01-08T23:43:34.649Z,99678.00
2023-01-08T23:46:02.227Z,99667.75
2023-01-08T23:48:29.128Z,99667.69
2023-01-08T23:50:56.549Z,99662.56
2023-01-08T23:53:23.464Z,99670.25
2023-01-08T23:55:54.616Z,99660.78
2023-01-08T23:58:24.367Z,99657.38
